sensor_id;sensor_type;location;lat;lon;timestamp;P1;durP1;ratioP1;P2;durP2;ratioP2
12155;SDS011;6141;49.092;8.516;2023-12-20T00:02:16;9.07;;;8.20;;
12155;SDS011;6141;49.092;8.516;2023-12-20T00:05:05;9.17;;;8.27;;
12155;SDS011;6141;49.092;8.516;2023-12-20T00:07:54;10.00;;;9.00;;
12155;SDS011;6141;49.092;8.516;2023-12-20T00:10:44;8.87;;;7.97;;
12155;SDS011;6141;49.092;8.516;2023-12-20T00:13:32;10.57;;;8.57;;
12155;SDS011;6141;49.092;8.516;2023-12-20T00:16:21;10.03;;;9.03;;
12155;SDS011;6141;49.092;8.516;2023-12-20T00:19:09;9.23;;;8.30;;
12155;SDS011;6141;49.092;8.516;2023-12-20T00:21:57;8.87;;;8.07;;
12155;SDS011;6141;49.092;8.516;2023-12-20T00:24:46;10.00;;;9.00;;
12155;SDS011;6141;49.092;8.516;2023-12-20T00:27:39;9.63;;;8.63;;
12155;SDS011;6141;49.092;8.516;2023-12-20T00:30:28;9.80;;;8.90;;
12155;SDS011;6141;49.092;8.516;2023-12-20T00:33:17;10.20;;;8.50;;
12155;SDS011;6141;49.092;8.516;2023-12-20T00:36:06;9.50;;;8.50;;
12155;SDS011;6141;49.092;8.516;2023-12-20T00:38:54;10.50;;;9.40;;
12155;SDS011;6141;49.092;8.516;2023-12-20T00:41:43;10.83;;;9.17;;
12155;SDS011;6141;49.092;8.516;2023-12-20T00:44:33;10.57;;;9.57;;
12155;SDS011;6141;49.092;8.516;2023-12-20T00:47:21;10.60;;;9.47;;
12155;SDS011;6141;49.092;8.516;2023-12-20T00:50:10;9.30;;;8.40;;
12155;SDS011;6141;49.092;8.516;2023-12-20T00:52:59;9.87;;;8.87;;
12155;SDS011;6141;49.092;8.516;2023-12-20T00:55:47;9.60;;;8.67;;
12155;SDS011;6141;49.092;8.516;2023-12-20T00:58:37;9.00;;;8.20;;
12155;SDS011;6141;49.092;8.516;2023-12-20T01:01:26;9.50;;;8.60;;
12155;SDS011;6141;49.092;8.516;2023-12-20T01:04:15;9.23;;;8.33;;
12155;SDS011;6141;49.092;8.516;2023-12-20T01:07:04;8.53;;;7.73;;
12155;SDS011;6141;49.092;8.516;2023-12-20T01:09:52;8.70;;;7.90;;
12155;SDS011;6141;49.092;8.516;2023-12-20T01:12:41;9.17;;;8.27;;
12155;SDS011;6141;49.092;8.516;2023-12-20T01:15:31;11.73;;;9.23;;
12155;SDS011;6141;49.092;8.516;2023-12-20T01:18:20;9.17;;;8.27;;
12155;SDS011;6141;49.092;8.516;2023-12-20T01:21:09;9.93;;;8.93;;
12155;SDS011;6141;49.092;8.516;2023-12-20T01:23:57;10.07;;;9.13;;
12155;SDS011;6141;49.092;8.516;2023-12-20T01:26:46;9.70;;;8.70;;
12155;SDS011;6141;49.092;8.516;2023-12-20T01:29:34;10.97;;;9.73;;
12155;SDS011;6141;49.092;8.516;2023-12-20T01:32:23;9.10;;;8.20;;
12155;SDS011;6141;49.092;8.516;2023-12-20T01:35:13;9.53;;;8.47;;
12155;SDS011;6141;49.092;8.516;2023-12-20T01:38:01;9.43;;;8.53;;
12155;SDS011;6141;49.092;8.516;2023-12-20T01:40:50;9.20;;;8.20;;
12155;SDS011;6141;49.092;8.516;2023-12-20T01:43:39;10.70;;;9.70;;
12155;SDS011;6141;49.092;8.516;2023-12-20T01:46:37;10.37;;;9.40;;
12155;SDS011;6141;49.092;8.516;2023-12-20T01:49:26;9.40;;;8.30;;
12155;SDS011;6141;49.092;8.516;2023-12-20T01:52:16;10.70;;;9.60;;
12155;SDS011;6141;49.092;8.516;2023-12-20T01:55:05;9.00;;;8.30;;
12155;SDS011;6141;49.092;8.516;2023-12-20T01:58:00;9.83;;;8.90;;
12155;SDS011;6141;49.092;8.516;2023-12-20T02:00:49;8.57;;;7.70;;
12155;SDS011;6141;49.092;8.516;2023-12-20T02:03:38;10.37;;;9.37;;
12155;SDS011;6141;49.092;8.516;2023-12-20T02:06:28;9.50;;;8.60;;
12155;SDS011;6141;49.092;8.516;2023-12-20T02:09:21;9.17;;;8.37;;
12155;SDS011;6141;49.092;8.516;2023-12-20T02:12:10;9.00;;;8.20;;
12155;SDS011;6141;49.092;8.516;2023-12-20T02:14:59;10.30;;;9.30;;
12155;SDS011;6141;49.092;8.516;2023-12-20T02:17:48;9.83;;;8.93;;
12155;SDS011;6141;49.092;8.516;2023-12-20T02:20:37;10.73;;;9.73;;
12155;SDS011;6141;49.092;8.516;2023-12-20T02:23:27;10.13;;;9.13;;
12155;SDS011;6141;49.092;8.516;2023-12-20T02:26:16;8.87;;;8.07;;
12155;SDS011;6141;49.092;8.516;2023-12-20T02:29:05;9.20;;;8.27;;
12155;SDS011;6141;49.092;8.516;2023-12-20T02:31:53;9.33;;;8.40;;
12155;SDS011;6141;49.092;8.516;2023-12-20T02:34:42;9.13;;;8.33;;
12155;SDS011;6141;49.092;8.516;2023-12-20T02:37:30;9.20;;;8.30;;
12155;SDS011;6141;49.092;8.516;2023-12-20T02:40:21;10.63;;;7.97;;
12155;SDS011;6141;49.092;8.516;2023-12-20T02:43:10;9.30;;;8.40;;
12155;SDS011;6141;49.092;8.516;2023-12-20T02:45:58;9.33;;;8.43;;
12155;SDS011;6141;49.092;8.516;2023-12-20T02:48:46;10.13;;;9.13;;
12155;SDS011;6141;49.092;8.516;2023-12-20T02:51:35;8.93;;;8.03;;
12155;SDS011;6141;49.092;8.516;2023-12-20T02:54:25;9.50;;;8.67;;
12155;SDS011;6141;49.092;8.516;2023-12-20T02:57:15;11.10;;;10.10;;
12155;SDS011;6141;49.092;8.516;2023-12-20T03:00:04;9.97;;;9.07;;
12155;SDS011;6141;49.092;8.516;2023-12-20T03:02:53;9.00;;;8.10;;
12155;SDS011;6141;49.092;8.516;2023-12-20T03:05:42;9.57;;;8.70;;
12155;SDS011;6141;49.092;8.516;2023-12-20T03:08:31;9.40;;;8.50;;
12155;SDS011;6141;49.092;8.516;2023-12-20T03:11:19;9.23;;;8.33;;
12155;SDS011;6141;49.092;8.516;2023-12-20T03:14:09;9.43;;;8.63;;
12155;SDS011;6141;49.092;8.516;2023-12-20T03:16:58;9.17;;;8.20;;
12155;SDS011;6141;49.092;8.516;2023-12-20T03:19:46;9.50;;;8.60;;
12155;SDS011;6141;49.092;8.516;2023-12-20T03:22:35;9.47;;;8.57;;
12155;SDS011;6141;49.092;8.516;2023-12-20T03:25:24;8.00;;;7.30;;
12155;SDS011;6141;49.092;8.516;2023-12-20T03:28:14;8.70;;;7.90;;
12155;SDS011;6141;49.092;8.516;2023-12-20T03:31:04;8.93;;;8.07;;
12155;SDS011;6141;49.092;8.516;2023-12-20T03:33:53;8.53;;;7.63;;
12155;SDS011;6141;49.092;8.516;2023-12-20T03:36:41;7.47;;;6.87;;
12155;SDS011;6141;49.092;8.516;2023-12-20T03:39:30;8.10;;;7.20;;
12155;SDS011;6141;49.092;8.516;2023-12-20T03:42:19;7.23;;;6.53;;
12155;SDS011;6141;49.092;8.516;2023-12-20T03:45:08;8.57;;;7.77;;
12155;SDS011;6141;49.092;8.516;2023-12-20T03:47:58;8.07;;;7.37;;
12155;SDS011;6141;49.092;8.516;2023-12-20T03:50:46;8.00;;;7.20;;
12155;SDS011;6141;49.092;8.516;2023-12-20T03:53:35;7.57;;;6.83;;
12155;SDS011;6141;49.092;8.516;2023-12-20T03:56:24;7.60;;;6.90;;
12155;SDS011;6141;49.092;8.516;2023-12-20T03:59:12;7.10;;;6.50;;
12155;SDS011;6141;49.092;8.516;2023-12-20T04:02:01;7.70;;;6.97;;
12155;SDS011;6141;49.092;8.516;2023-12-20T04:04:51;7.43;;;6.80;;
12155;SDS011;6141;49.092;8.516;2023-12-20T04:07:40;7.33;;;6.73;;
12155;SDS011;6141;49.092;8.516;2023-12-20T04:10:29;6.90;;;6.30;;
12155;SDS011;6141;49.092;8.516;2023-12-20T04:13:18;6.07;;;5.47;;
12155;SDS011;6141;49.092;8.516;2023-12-20T04:16:07;7.17;;;6.03;;
12155;SDS011;6141;49.092;8.516;2023-12-20T04:18:55;6.30;;;5.70;;
12155;SDS011;6141;49.092;8.516;2023-12-20T04:21:45;5.87;;;5.37;;
12155;SDS011;6141;49.092;8.516;2023-12-20T04:24:34;7.60;;;6.73;;
12155;SDS011;6141;49.092;8.516;2023-12-20T04:27:22;6.57;;;5.97;;
12155;SDS011;6141;49.092;8.516;2023-12-20T04:30:11;6.50;;;6.00;;
12155;SDS011;6141;49.092;8.516;2023-12-20T04:32:59;6.50;;;5.90;;
12155;SDS011;6141;49.092;8.516;2023-12-20T04:35:49;6.63;;;6.03;;
12155;SDS011;6141;49.092;8.516;2023-12-20T04:38:39;6.80;;;6.23;;
12155;SDS011;6141;49.092;8.516;2023-12-20T04:41:28;6.00;;;5.50;;
12155;SDS011;6141;49.092;8.516;2023-12-20T04:44:16;6.53;;;5.90;;
12155;SDS011;6141;49.092;8.516;2023-12-20T04:47:05;7.50;;;6.80;;
12155;SDS011;6141;49.092;8.516;2023-12-20T04:49:53;6.73;;;6.13;;
12155;SDS011;6141;49.092;8.516;2023-12-20T04:52:42;6.33;;;5.83;;
12155;SDS011;6141;49.092;8.516;2023-12-20T04:55:32;5.23;;;4.73;;
12155;SDS011;6141;49.092;8.516;2023-12-20T04:58:21;6.10;;;5.60;;
12155;SDS011;6141;49.092;8.516;2023-12-20T05:01:09;5.70;;;5.20;;
12155;SDS011;6141;49.092;8.516;2023-12-20T05:03:58;5.90;;;5.40;;
12155;SDS011;6141;49.092;8.516;2023-12-20T05:06:47;5.80;;;5.03;;
12155;SDS011;6141;49.092;8.516;2023-12-20T05:09:37;5.03;;;4.63;;
12155;SDS011;6141;49.092;8.516;2023-12-20T05:12:27;5.53;;;5.07;;
12155;SDS011;6141;49.092;8.516;2023-12-20T05:15:16;5.00;;;4.60;;
12155;SDS011;6141;49.092;8.516;2023-12-20T05:18:04;5.63;;;5.13;;
12155;SDS011;6141;49.092;8.516;2023-12-20T05:20:53;5.80;;;5.30;;
12155;SDS011;6141;49.092;8.516;2023-12-20T05:23:45;6.00;;;5.50;;
12155;SDS011;6141;49.092;8.516;2023-12-20T05:26:33;6.00;;;5.40;;
12155;SDS011;6141;49.092;8.516;2023-12-20T05:29:23;5.00;;;4.60;;
12155;SDS011;6141;49.092;8.516;2023-12-20T05:32:12;5.20;;;4.80;;
12155;SDS011;6141;49.092;8.516;2023-12-20T05:35:00;5.90;;;5.40;;
12155;SDS011;6141;49.092;8.516;2023-12-20T05:37:50;5.40;;;5.00;;
12155;SDS011;6141;49.092;8.516;2023-12-20T05:40:38;6.30;;;5.70;;
12155;SDS011;6141;49.092;8.516;2023-12-20T05:43:27;5.90;;;5.40;;
12155;SDS011;6141;49.092;8.516;2023-12-20T05:46:17;6.27;;;5.77;;
12155;SDS011;6141;49.092;8.516;2023-12-20T05:49:06;6.40;;;5.90;;
12155;SDS011;6141;49.092;8.516;2023-12-20T05:51:54;6.80;;;6.20;;
12155;SDS011;6141;49.092;8.516;2023-12-20T05:54:43;5.60;;;5.10;;
12155;SDS011;6141;49.092;8.516;2023-12-20T05:57:31;6.57;;;5.97;;
12155;SDS011;6141;49.092;8.516;2023-12-20T06:00:20;5.97;;;5.47;;
12155;SDS011;6141;49.092;8.516;2023-12-20T06:03:10;6.70;;;6.10;;
12155;SDS011;6141;49.092;8.516;2023-12-20T06:05:59;6.53;;;6.03;;
12155;SDS011;6141;49.092;8.516;2023-12-20T06:09:02;6.33;;;5.83;;
12155;SDS011;6141;49.092;8.516;2023-12-20T06:11:51;6.83;;;6.23;;
12155;SDS011;6141;49.092;8.516;2023-12-20T06:14:40;8.00;;;6.43;;
12155;SDS011;6141;49.092;8.516;2023-12-20T06:17:28;6.80;;;6.10;;
12155;SDS011;6141;49.092;8.516;2023-12-20T06:20:19;6.07;;;5.47;;
12155;SDS011;6141;49.092;8.516;2023-12-20T06:23:08;6.93;;;6.40;;
12155;SDS011;6141;49.092;8.516;2023-12-20T06:25:57;8.20;;;7.50;;
12155;SDS011;6141;49.092;8.516;2023-12-20T06:28:45;8.50;;;7.80;;
12155;SDS011;6141;49.092;8.516;2023-12-20T06:31:34;7.20;;;6.60;;
12155;SDS011;6141;49.092;8.516;2023-12-20T06:34:22;7.27;;;6.63;;
12155;SDS011;6141;49.092;8.516;2023-12-20T06:37:12;8.23;;;7.53;;
12155;SDS011;6141;49.092;8.516;2023-12-20T06:40:02;7.37;;;6.77;;
12155;SDS011;6141;49.092;8.516;2023-12-20T06:43:02;6.60;;;6.10;;
12155;SDS011;6141;49.092;8.516;2023-12-20T06:46:06;7.03;;;6.43;;
12155;SDS011;6141;49.092;8.516;2023-12-20T06:48:55;6.53;;;6.03;;
12155;SDS011;6141;49.092;8.516;2023-12-20T06:51:44;8.00;;;7.30;;
12155;SDS011;6141;49.092;8.516;2023-12-20T06:54:34;7.63;;;7.03;;
12155;SDS011;6141;49.092;8.516;2023-12-20T06:57:22;6.67;;;6.07;;
12155;SDS011;6141;49.092;8.516;2023-12-20T07:00:13;6.53;;;5.93;;
12155;SDS011;6141;49.092;8.516;2023-12-20T07:03:02;6.70;;;6.10;;
12155;SDS011;6141;49.092;8.516;2023-12-20T07:05:51;7.00;;;6.40;;
12155;SDS011;6141;49.092;8.516;2023-12-20T07:08:39;6.83;;;6.23;;
12155;SDS011;6141;49.092;8.516;2023-12-20T07:11:32;6.27;;;5.67;;
12155;SDS011;6141;49.092;8.516;2023-12-20T07:14:21;5.60;;;5.07;;
12155;SDS011;6141;49.092;8.516;2023-12-20T07:17:09;5.80;;;5.10;;
12155;SDS011;6141;49.092;8.516;2023-12-20T07:20:02;8.93;;;5.03;;
12155;SDS011;6141;49.092;8.516;2023-12-20T07:22:54;4.90;;;4.50;;
12155;SDS011;6141;49.092;8.516;2023-12-20T07:25:43;5.40;;;4.90;;
12155;SDS011;6141;49.092;8.516;2023-12-20T07:28:35;5.23;;;4.73;;
12155;SDS011;6141;49.092;8.516;2023-12-20T07:31:24;6.40;;;5.10;;
12155;SDS011;6141;49.092;8.516;2023-12-20T07:34:12;4.33;;;3.97;;
12155;SDS011;6141;49.092;8.516;2023-12-20T07:37:01;4.17;;;3.80;;
12155;SDS011;6141;49.092;8.516;2023-12-20T07:39:49;4.43;;;4.03;;
12155;SDS011;6141;49.092;8.516;2023-12-20T07:42:38;4.97;;;4.47;;
12155;SDS011;6141;49.092;8.516;2023-12-20T07:45:27;4.53;;;4.13;;
12155;SDS011;6141;49.092;8.516;2023-12-20T07:48:16;5.47;;;4.97;;
12155;SDS011;6141;49.092;8.516;2023-12-20T07:51:04;5.07;;;4.67;;
12155;SDS011;6141;49.092;8.516;2023-12-20T07:53:54;4.80;;;4.37;;
12155;SDS011;6141;49.092;8.516;2023-12-20T07:56:42;4.90;;;4.40;;
12155;SDS011;6141;49.092;8.516;2023-12-20T07:59:31;4.63;;;4.23;;
12155;SDS011;6141;49.092;8.516;2023-12-20T08:02:21;4.83;;;3.63;;
12155;SDS011;6141;49.092;8.516;2023-12-20T08:05:10;5.27;;;4.07;;
12155;SDS011;6141;49.092;8.516;2023-12-20T08:07:58;4.10;;;3.70;;
12155;SDS011;6141;49.092;8.516;2023-12-20T08:10:47;4.37;;;3.40;;
12155;SDS011;6141;49.092;8.516;2023-12-20T08:13:35;4.00;;;3.30;;
12155;SDS011;6141;49.092;8.516;2023-12-20T08:16:24;3.90;;;3.50;;
12155;SDS011;6141;49.092;8.516;2023-12-20T08:19:14;4.03;;;3.40;;
12155;SDS011;6141;49.092;8.516;2023-12-20T08:22:03;4.13;;;3.60;;
12155;SDS011;6141;49.092;8.516;2023-12-20T08:24:51;4.80;;;4.30;;
12155;SDS011;6141;49.092;8.516;2023-12-20T08:27:40;4.30;;;3.90;;
12155;SDS011;6141;49.092;8.516;2023-12-20T08:30:29;3.87;;;3.53;;
12155;SDS011;6141;49.092;8.516;2023-12-20T08:33:18;4.60;;;4.10;;
12155;SDS011;6141;49.092;8.516;2023-12-20T08:36:08;5.17;;;4.67;;
12155;SDS011;6141;49.092;8.516;2023-12-20T08:38:57;4.33;;;3.50;;
12155;SDS011;6141;49.092;8.516;2023-12-20T08:41:47;4.53;;;3.70;;
12155;SDS011;6141;49.092;8.516;2023-12-20T08:44:35;4.30;;;3.90;;
12155;SDS011;6141;49.092;8.516;2023-12-20T08:47:24;4.03;;;3.30;;
12155;SDS011;6141;49.092;8.516;2023-12-20T08:50:13;5.03;;;3.40;;
12155;SDS011;6141;49.092;8.516;2023-12-20T08:53:03;4.37;;;3.33;;
12155;SDS011;6141;49.092;8.516;2023-12-20T08:55:52;3.53;;;3.20;;
12155;SDS011;6141;49.092;8.516;2023-12-20T08:58:40;7.00;;;3.33;;
12155;SDS011;6141;49.092;8.516;2023-12-20T09:01:29;3.50;;;2.73;;
12155;SDS011;6141;49.092;8.516;2023-12-20T09:04:18;4.20;;;2.60;;
12155;SDS011;6141;49.092;8.516;2023-12-20T09:07:06;5.03;;;2.50;;
12155;SDS011;6141;49.092;8.516;2023-12-20T09:09:56;6.87;;;3.20;;
12155;SDS011;6141;49.092;8.516;2023-12-20T09:12:45;3.40;;;2.20;;
12155;SDS011;6141;49.092;8.516;2023-12-20T09:15:35;5.93;;;2.30;;
12155;SDS011;6141;49.092;8.516;2023-12-20T09:18:23;4.80;;;2.50;;
12155;SDS011;6141;49.092;8.516;2023-12-20T09:21:12;7.03;;;2.50;;
12155;SDS011;6141;49.092;8.516;2023-12-20T09:24:00;4.27;;;2.17;;
12155;SDS011;6141;49.092;8.516;2023-12-20T09:26:53;3.53;;;2.10;;
12155;SDS011;6141;49.092;8.516;2023-12-20T09:29:41;5.70;;;2.23;;
12155;SDS011;6141;49.092;8.516;2023-12-20T09:32:30;6.73;;;2.40;;
12155;SDS011;6141;49.092;8.516;2023-12-20T09:35:18;3.80;;;2.10;;
12155;SDS011;6141;49.092;8.516;2023-12-20T09:38:07;3.33;;;2.13;;
12155;SDS011;6141;49.092;8.516;2023-12-20T09:40:56;5.20;;;2.40;;
12155;SDS011;6141;49.092;8.516;2023-12-20T09:43:45;4.37;;;2.20;;
12155;SDS011;6141;49.092;8.516;2023-12-20T09:46:35;7.73;;;2.20;;
12155;SDS011;6141;49.092;8.516;2023-12-20T09:49:28;4.33;;;2.30;;
12155;SDS011;6141;49.092;8.516;2023-12-20T09:52:17;6.90;;;2.37;;
12155;SDS011;6141;49.092;8.516;2023-12-20T09:55:07;5.00;;;2.07;;
12155;SDS011;6141;49.092;8.516;2023-12-20T09:57:56;4.37;;;2.47;;
12155;SDS011;6141;49.092;8.516;2023-12-20T10:00:46;5.20;;;2.30;;
12155;SDS011;6141;49.092;8.516;2023-12-20T10:03:35;6.30;;;2.30;;
12155;SDS011;6141;49.092;8.516;2023-12-20T10:06:28;6.13;;;2.63;;
12155;SDS011;6141;49.092;8.516;2023-12-20T10:09:17;6.50;;;2.10;;
12155;SDS011;6141;49.092;8.516;2023-12-20T10:12:06;7.53;;;2.50;;
12155;SDS011;6141;49.092;8.516;2023-12-20T10:14:55;7.53;;;2.83;;
12155;SDS011;6141;49.092;8.516;2023-12-20T10:17:48;6.30;;;2.17;;
12155;SDS011;6141;49.092;8.516;2023-12-20T10:20:37;4.40;;;2.23;;
12155;SDS011;6141;49.092;8.516;2023-12-20T10:23:28;5.27;;;2.13;;
12155;SDS011;6141;49.092;8.516;2023-12-20T10:26:22;3.73;;;1.97;;
12155;SDS011;6141;49.092;8.516;2023-12-20T10:29:11;5.47;;;2.37;;
12155;SDS011;6141;49.092;8.516;2023-12-20T10:32:00;5.23;;;2.50;;
12155;SDS011;6141;49.092;8.516;2023-12-20T10:35:10;4.07;;;2.07;;
12155;SDS011;6141;49.092;8.516;2023-12-20T10:37:58;8.30;;;2.30;;
12155;SDS011;6141;49.092;8.516;2023-12-20T10:40:52;5.40;;;2.60;;
12155;SDS011;6141;49.092;8.516;2023-12-20T10:43:44;4.67;;;2.00;;
12155;SDS011;6141;49.092;8.516;2023-12-20T10:46:33;6.60;;;2.37;;
12155;SDS011;6141;49.092;8.516;2023-12-20T10:49:22;6.33;;;2.67;;
12155;SDS011;6141;49.092;8.516;2023-12-20T10:52:13;6.53;;;2.60;;
12155;SDS011;6141;49.092;8.516;2023-12-20T10:55:02;5.77;;;2.37;;
12155;SDS011;6141;49.092;8.516;2023-12-20T10:57:51;5.57;;;2.10;;
12155;SDS011;6141;49.092;8.516;2023-12-20T11:00:40;6.13;;;2.30;;
12155;SDS011;6141;49.092;8.516;2023-12-20T11:03:35;7.07;;;2.57;;
12155;SDS011;6141;49.092;8.516;2023-12-20T11:06:29;5.57;;;2.30;;
12155;SDS011;6141;49.092;8.516;2023-12-20T11:09:26;9.20;;;3.03;;
12155;SDS011;6141;49.092;8.516;2023-12-20T11:12:24;7.33;;;2.73;;
12155;SDS011;6141;49.092;8.516;2023-12-20T11:15:19;6.10;;;2.60;;
12155;SDS011;6141;49.092;8.516;2023-12-20T11:18:08;7.20;;;2.50;;
12155;SDS011;6141;49.092;8.516;2023-12-20T11:21:00;7.03;;;2.83;;
12155;SDS011;6141;49.092;8.516;2023-12-20T11:23:49;10.43;;;2.77;;
12155;SDS011;6141;49.092;8.516;2023-12-20T11:26:39;5.47;;;2.57;;
12155;SDS011;6141;49.092;8.516;2023-12-20T11:29:35;8.47;;;2.90;;
12155;SDS011;6141;49.092;8.516;2023-12-20T11:32:27;9.20;;;2.90;;
12155;SDS011;6141;49.092;8.516;2023-12-20T11:35:17;9.30;;;2.93;;
12155;SDS011;6141;49.092;8.516;2023-12-20T11:38:08;6.90;;;2.33;;
12155;SDS011;6141;49.092;8.516;2023-12-20T11:40:57;8.97;;;3.17;;
12155;SDS011;6141;49.092;8.516;2023-12-20T11:43:52;9.20;;;3.23;;
12155;SDS011;6141;49.092;8.516;2023-12-20T11:46:41;7.27;;;2.93;;
12155;SDS011;6141;49.092;8.516;2023-12-20T11:49:30;9.50;;;3.23;;
12155;SDS011;6141;49.092;8.516;2023-12-20T11:52:18;9.33;;;3.20;;
12155;SDS011;6141;49.092;8.516;2023-12-20T11:55:07;8.97;;;2.87;;
12155;SDS011;6141;49.092;8.516;2023-12-20T11:57:56;8.77;;;3.10;;
12155;SDS011;6141;49.092;8.516;2023-12-20T12:00:46;5.63;;;2.63;;
12155;SDS011;6141;49.092;8.516;2023-12-20T12:03:37;9.83;;;3.23;;
12155;SDS011;6141;49.092;8.516;2023-12-20T12:06:26;8.40;;;3.10;;
12155;SDS011;6141;49.092;8.516;2023-12-20T12:09:14;8.97;;;2.97;;
12155;SDS011;6141;49.092;8.516;2023-12-20T12:12:03;7.73;;;3.00;;
12155;SDS011;6141;49.092;8.516;2023-12-20T12:14:52;7.20;;;3.00;;
12155;SDS011;6141;49.092;8.516;2023-12-20T12:17:45;8.03;;;3.50;;
12155;SDS011;6141;49.092;8.516;2023-12-20T12:20:41;7.40;;;3.30;;
12155;SDS011;6141;49.092;8.516;2023-12-20T12:23:29;7.10;;;3.30;;
12155;SDS011;6141;49.092;8.516;2023-12-20T12:26:18;8.90;;;3.20;;
12155;SDS011;6141;49.092;8.516;2023-12-20T12:29:07;12.70;;;3.80;;
12155;SDS011;6141;49.092;8.516;2023-12-20T12:31:56;10.63;;;3.20;;
12155;SDS011;6141;49.092;8.516;2023-12-20T12:34:46;10.60;;;3.80;;
12155;SDS011;6141;49.092;8.516;2023-12-20T12:37:35;10.17;;;3.53;;
12155;SDS011;6141;49.092;8.516;2023-12-20T12:40:26;10.63;;;3.50;;
12155;SDS011;6141;49.092;8.516;2023-12-20T12:43:14;11.60;;;3.50;;
12155;SDS011;6141;49.092;8.516;2023-12-20T12:46:03;7.17;;;3.00;;
12155;SDS011;6141;49.092;8.516;2023-12-20T12:48:53;9.63;;;3.20;;
12155;SDS011;6141;49.092;8.516;2023-12-20T12:51:43;10.73;;;3.33;;
12155;SDS011;6141;49.092;8.516;2023-12-20T12:54:31;9.90;;;3.37;;
12155;SDS011;6141;49.092;8.516;2023-12-20T12:57:20;8.23;;;3.30;;
12155;SDS011;6141;49.092;8.516;2023-12-20T13:00:09;9.53;;;3.10;;
12155;SDS011;6141;49.092;8.516;2023-12-20T13:02:58;7.63;;;3.00;;
12155;SDS011;6141;49.092;8.516;2023-12-20T13:05:47;10.73;;;3.27;;
12155;SDS011;6141;49.092;8.516;2023-12-20T13:08:38;8.30;;;2.67;;
12155;SDS011;6141;49.092;8.516;2023-12-20T13:11:26;8.73;;;2.70;;
12155;SDS011;6141;49.092;8.516;2023-12-20T13:14:15;7.83;;;2.40;;
12155;SDS011;6141;49.092;8.516;2023-12-20T13:17:04;9.40;;;2.90;;
12155;SDS011;6141;49.092;8.516;2023-12-20T13:19:52;8.53;;;3.10;;
12155;SDS011;6141;49.092;8.516;2023-12-20T13:22:41;8.10;;;2.90;;
12155;SDS011;6141;49.092;8.516;2023-12-20T13:25:31;7.47;;;3.20;;
12155;SDS011;6141;49.092;8.516;2023-12-20T13:28:20;9.10;;;2.90;;
12155;SDS011;6141;49.092;8.516;2023-12-20T13:31:08;9.57;;;3.13;;
12155;SDS011;6141;49.092;8.516;2023-12-20T13:33:57;10.10;;;2.63;;
12155;SDS011;6141;49.092;8.516;2023-12-20T13:36:45;9.00;;;3.13;;
12155;SDS011;6141;49.092;8.516;2023-12-20T13:39:34;11.73;;;3.20;;
12155;SDS011;6141;49.092;8.516;2023-12-20T13:42:24;7.03;;;3.00;;
12155;SDS011;6141;49.092;8.516;2023-12-20T13:45:14;8.23;;;2.87;;
12155;SDS011;6141;49.092;8.516;2023-12-20T13:48:02;8.90;;;2.93;;
12155;SDS011;6141;49.092;8.516;2023-12-20T13:50:51;6.10;;;2.50;;
12155;SDS011;6141;49.092;8.516;2023-12-20T13:53:41;9.27;;;3.07;;
12155;SDS011;6141;49.092;8.516;2023-12-20T13:56:29;7.17;;;2.80;;
12155;SDS011;6141;49.092;8.516;2023-12-20T13:59:31;8.13;;;2.90;;
12155;SDS011;6141;49.092;8.516;2023-12-20T14:02:19;6.00;;;2.80;;
12155;SDS011;6141;49.092;8.516;2023-12-20T14:05:08;11.33;;;3.37;;
12155;SDS011;6141;49.092;8.516;2023-12-20T14:07:57;10.17;;;2.93;;
12155;SDS011;6141;49.092;8.516;2023-12-20T14:10:46;8.10;;;3.03;;
12155;SDS011;6141;49.092;8.516;2023-12-20T14:13:36;8.40;;;2.73;;
12155;SDS011;6141;49.092;8.516;2023-12-20T14:16:26;10.00;;;2.70;;
12155;SDS011;6141;49.092;8.516;2023-12-20T14:19:14;6.83;;;3.07;;
12155;SDS011;6141;49.092;8.516;2023-12-20T14:22:03;7.67;;;2.83;;
12155;SDS011;6141;49.092;8.516;2023-12-20T14:24:51;7.03;;;3.10;;
12155;SDS011;6141;49.092;8.516;2023-12-20T14:27:41;8.77;;;2.97;;
12155;SDS011;6141;49.092;8.516;2023-12-20T14:30:31;8.93;;;3.00;;
12155;SDS011;6141;49.092;8.516;2023-12-20T14:33:21;7.90;;;2.67;;
12155;SDS011;6141;49.092;8.516;2023-12-20T14:36:10;8.40;;;2.80;;
12155;SDS011;6141;49.092;8.516;2023-12-20T14:38:59;6.20;;;2.80;;
12155;SDS011;6141;49.092;8.516;2023-12-20T14:41:48;11.20;;;3.30;;
12155;SDS011;6141;49.092;8.516;2023-12-20T14:44:37;5.57;;;2.40;;
12155;SDS011;6141;49.092;8.516;2023-12-20T14:47:25;11.93;;;3.03;;
12155;SDS011;6141;49.092;8.516;2023-12-20T14:50:15;8.60;;;3.17;;
12155;SDS011;6141;49.092;8.516;2023-12-20T14:53:06;8.97;;;3.20;;
12155;SDS011;6141;49.092;8.516;2023-12-20T14:55:54;10.10;;;3.80;;
12155;SDS011;6141;49.092;8.516;2023-12-20T14:58:43;9.43;;;2.83;;
12155;SDS011;6141;49.092;8.516;2023-12-20T15:01:31;9.10;;;2.80;;
12155;SDS011;6141;49.092;8.516;2023-12-20T15:04:20;6.80;;;2.73;;
12155;SDS011;6141;49.092;8.516;2023-12-20T15:07:16;9.00;;;3.00;;
12155;SDS011;6141;49.092;8.516;2023-12-20T15:10:05;8.07;;;3.43;;
12155;SDS011;6141;49.092;8.516;2023-12-20T15:12:54;10.77;;;3.00;;
12155;SDS011;6141;49.092;8.516;2023-12-20T15:15:42;8.37;;;3.00;;
12155;SDS011;6141;49.092;8.516;2023-12-20T15:18:33;11.23;;;2.97;;
12155;SDS011;6141;49.092;8.516;2023-12-20T15:21:21;7.87;;;3.00;;
12155;SDS011;6141;49.092;8.516;2023-12-20T15:24:19;11.87;;;3.07;;
12155;SDS011;6141;49.092;8.516;2023-12-20T15:27:14;10.63;;;3.50;;
12155;SDS011;6141;49.092;8.516;2023-12-20T15:30:03;5.23;;;2.63;;
12155;SDS011;6141;49.092;8.516;2023-12-20T15:32:53;7.03;;;3.20;;
12155;SDS011;6141;49.092;8.516;2023-12-20T15:35:42;9.90;;;2.87;;
12155;SDS011;6141;49.092;8.516;2023-12-20T15:38:30;11.90;;;3.83;;
12155;SDS011;6141;49.092;8.516;2023-12-20T15:41:20;9.23;;;3.53;;
12155;SDS011;6141;49.092;8.516;2023-12-20T15:44:10;10.90;;;3.57;;
12155;SDS011;6141;49.092;8.516;2023-12-20T15:46:58;9.67;;;3.67;;
12155;SDS011;6141;49.092;8.516;2023-12-20T15:49:47;10.07;;;3.10;;
12155;SDS011;6141;49.092;8.516;2023-12-20T15:52:36;9.83;;;3.40;;
12155;SDS011;6141;49.092;8.516;2023-12-20T15:55:25;8.93;;;2.90;;
12155;SDS011;6141;49.092;8.516;2023-12-20T15:58:15;10.13;;;3.23;;
12155;SDS011;6141;49.092;8.516;2023-12-20T16:01:03;9.47;;;3.00;;
12155;SDS011;6141;49.092;8.516;2023-12-20T16:03:52;7.30;;;2.90;;
12155;SDS011;6141;49.092;8.516;2023-12-20T16:06:45;10.03;;;3.03;;
12155;SDS011;6141;49.092;8.516;2023-12-20T16:09:34;8.03;;;2.97;;
12155;SDS011;6141;49.092;8.516;2023-12-20T16:12:22;11.47;;;3.13;;
12155;SDS011;6141;49.092;8.516;2023-12-20T16:15:12;10.63;;;2.97;;
12155;SDS011;6141;49.092;8.516;2023-12-20T16:18:00;10.07;;;2.83;;
12155;SDS011;6141;49.092;8.516;2023-12-20T16:20:49;9.70;;;3.00;;
12155;SDS011;6141;49.092;8.516;2023-12-20T16:23:38;11.37;;;3.67;;
12155;SDS011;6141;49.092;8.516;2023-12-20T16:26:26;9.87;;;3.50;;
12155;SDS011;6141;49.092;8.516;2023-12-20T16:29:15;11.17;;;2.77;;
12155;SDS011;6141;49.092;8.516;2023-12-20T16:32:06;8.50;;;3.53;;
12155;SDS011;6141;49.092;8.516;2023-12-20T16:34:54;8.70;;;2.70;;
12155;SDS011;6141;49.092;8.516;2023-12-20T16:37:43;9.63;;;3.37;;
12155;SDS011;6141;49.092;8.516;2023-12-20T16:40:32;8.80;;;3.17;;
12155;SDS011;6141;49.092;8.516;2023-12-20T16:43:21;7.17;;;2.97;;
12155;SDS011;6141;49.092;8.516;2023-12-20T16:46:09;8.30;;;3.10;;
12155;SDS011;6141;49.092;8.516;2023-12-20T16:48:59;8.33;;;2.93;;
12155;SDS011;6141;49.092;8.516;2023-12-20T16:51:48;7.83;;;3.07;;
12155;SDS011;6141;49.092;8.516;2023-12-20T16:54:36;6.70;;;3.07;;
12155;SDS011;6141;49.092;8.516;2023-12-20T16:57:25;8.63;;;3.27;;
12155;SDS011;6141;49.092;8.516;2023-12-20T17:00:14;11.43;;;4.47;;
12155;SDS011;6141;49.092;8.516;2023-12-20T17:03:04;6.43;;;2.50;;
12155;SDS011;6141;49.092;8.516;2023-12-20T17:05:53;8.73;;;3.10;;
12155;SDS011;6141;49.092;8.516;2023-12-20T17:08:42;7.90;;;2.53;;
12155;SDS011;6141;49.092;8.516;2023-12-20T17:11:31;8.40;;;2.93;;
12155;SDS011;6141;49.092;8.516;2023-12-20T17:14:19;5.67;;;2.50;;
12155;SDS011;6141;49.092;8.516;2023-12-20T17:17:08;6.20;;;2.67;;